Monday, August 20, 2018, 8:43 AM EDT
Back to Local

KMIV, Millville Municipal Airport

Location: Millville, NJ, United States Lat: 39.367
Local Time: 8:43 AM EDT (12:43 GMT) Lon: -75.083
Time Zone: US/Eastern Elev: 85 ft

Show me the last for .
Show Decoded

2018-08-20 07:54 METAR KMIV 201154Z AUTO 04006KT 10SM OVC017 21/18 A3010 RMK AO2 SLP192 70001
                 T02060178 10206 20200 53015 =
2018-08-20 06:54 METAR KMIV 201054Z AUTO 03008KT 10SM OVC017 20/17 A3008 RMK AO2 SLP186 T02000172
                 =
2018-08-20 06:18 METAR KMIV 201018Z AUTO 04009KT 10SM BKN015 20/17 A3007 RMK AO2 T02000172 =
2018-08-20 05:54 METAR KMIV 200954Z AUTO 04008KT 10SM SCT065 20/18 A3007 RMK AO2 SLP179 T02000178
                 =
2018-08-20 04:54 METAR KMIV 200854Z AUTO 04008KT 10SM OVC055 21/18 A3006 RMK AO2 SLP178 T02060178
                 52001 =
2018-08-20 04:20 METAR KMIV 200820Z AUTO 05007KT 10SM FEW020 BKN036 OVC055 21/18 A3007 RMK AO2
                 T02060178 =
2018-08-20 03:54 METAR KMIV 200754Z AUTO 05006KT 10SM FEW020 OVC026 21/18 A3007 RMK AO2 SLP179
                 T02060178 =
2018-08-20 02:54 METAR KMIV 200654Z AUTO 05006KT 10SM OVC023 21/18 A3005 RMK AO2 SLP174 T02060178
                 =
2018-08-20 01:54 METAR KMIV 200554Z AUTO 04007KT 10SM OVC019 20/18 A3006 RMK AO2 SLP176 60001
                 T02000183 10211 20200 55003 =
2018-08-20 00:54 METAR KMIV 200454Z AUTO 04006KT 10SM OVC018 20/18 A3005 RMK AO2 SLP174 T02000183
                 402440200 =
2018-08-19 23:54 METAR KMIV 200354Z AUTO 04009KT 10SM OVC017 21/18 A3006 RMK AO2 RAB0259E24
                 SLP177 P0001 T02060183 =
2018-08-19 23:41 METAR KMIV 200341Z AUTO 06006KT 10SM OVC015 20/18 A3006 RMK AO2 RAB0259E24 P0001
                 T02000183 =
2018-08-19 22:54 METAR KMIV 200254Z AUTO 05007KT 9SM OVC010 20/18 A3006 RMK AO2 SLP179 T02000183
                 51018 =
2018-08-19 21:54 METAR KMIV 200154Z AUTO 04008KT 10SM OVC010 20/18 A3005 RMK AO2 SLP175 T02000183
                 =
2018-08-19 20:54 METAR KMIV 200054Z AUTO 05009KT 10SM OVC011 21/19 A3004 RMK AO2 SLP170 T02110189
                 =
2018-08-19 19:54 METAR KMIV 192354Z AUTO 05009KT 10SM OVC013 21/19 A3001 RMK AO2 SLP161 T02110189
                 10233 20211 53012 =
2018-08-19 18:54 METAR KMIV 192254Z AUTO 05008KT 10SM OVC013 22/19 A3000 RMK AO2 SLP158 T02170189
                 =
2018-08-19 17:54 METAR KMIV 192154Z AUTO 04009KT 10SM OVC013 22/19 A2998 RMK AO2 SLP152 T02220194
                 =
2018-08-19 16:54 METAR KMIV 192054Z AUTO 05009KT 10SM OVC013 22/19 A2998 RMK AO2 SLP149 T02220194
                 53008 =
2018-08-19 15:54 METAR KMIV 191954Z AUTO 05007KT 10SM OVC014 23/19 A2996 RMK AO2 SLP145 T02280194
                 =
2018-08-19 14:54 METAR KMIV 191854Z AUTO 06009KT 10SM OVC013 23/20 A2996 RMK AO2 SLP143 T02280200
                 =
2018-08-19 14:39 METAR KMIV 191839Z AUTO 06011KT 10SM OVC014 23/20 A2996 RMK AO2 T02280200 =
2018-08-19 14:20 METAR KMIV 191820Z AUTO 07010KT 10SM OVC015 23/20 A2996 RMK AO2 T02330200 =
2018-08-19 13:54 METAR KMIV 191754Z AUTO 07010KT 10SM OVC013 23/20 A2995 RMK AO2 SLP141 T02330200
                 10244 20222 53008 =
2018-08-19 13:05 METAR KMIV 191705Z AUTO 08008G16KT 10SM OVC014 23/20 A2994 RMK AO2 T02280200 =
2018-08-19 12:54 METAR KMIV 191654Z AUTO 07009KT 10SM OVC015 24/21 A2994 RMK AO2 SLP137 T02390206
                 =
2018-08-19 12:26 METAR KMIV 191626Z AUTO 08010KT 10SM OVC015 23/21 A2994 RMK AO2 T02330206 =
2018-08-19 11:54 METAR KMIV 191554Z AUTO 04010KT 10SM OVC014 23/21 A2994 RMK AO2 SLP136 T02280206
                 =
2018-08-19 10:54 METAR KMIV 191454Z AUTO 05008KT 10SM OVC012 24/21 A2993 RMK AO2 SLP133 T02390211
                 53013 =
2018-08-19 09:54 METAR KMIV 191354Z AUTO 05009KT 10SM BKN014 OVC021 23/21 A2992 RMK AO2 SLP129
                 T02330206 =
2018-08-19 08:54 METAR KMIV 191254Z AUTO 04009KT 10SM OVC012 23/21 A2990 RMK AO2 SLP122 T02330206
                 =

Support USWX by starting your Amazon purchase here.